Time;durP1;ratioP1;P1;durP2;ratioP2;P2;SDS_P1;SDS_P2;PMS_P1;PMS_P2;Temp;Humidity;BMP_temperature;BMP_pressure;BME280_temperature;BME280_humidity;BME280_pressure;Samples;Min_cycle;Max_cycle;Signal;HPM_P1;HPM_P2
2023/02/02 00:01:26;;;;;;;;;7.00;6.00;;;;;8.18;57.78;97814.97;6149978;28;97521;-68
2023/02/02 00:04:32;;;;;;;;;7.25;5.25;;;;;8.13;57.93;97820.19;6150083;28;98400;-68
2023/02/02 00:07:35;;;;;;;;;6.25;6.25;;;;;8.08;58.48;97819.25;6147810;28;96199;-68
2023/02/02 00:10:38;;;;;;;;;6.00;6.00;;;;;8.09;58.71;97827.09;6145581;28;97296;-67
2023/02/02 00:13:43;;;;;;;;;6.60;6.60;;;;;7.94;59.25;97818.66;6148854;28;96392;-68
2023/02/02 00:16:48;;;;;;;;;6.00;6.00;;;;;7.81;60.21;97808.97;6151776;28;96513;-68
2023/02/02 00:19:52;;;;;;;;;7.80;7.00;;;;;7.64;61.22;97820.56;6153066;28;96260;-67
2023/02/02 00:22:55;;;;;;;;;7.75;7.00;;;;;7.62;61.63;97830.72;6147204;28;96304;-67
2023/02/02 00:25:59;;;;;;;;;5.60;5.60;;;;;7.56;61.93;97837.81;6148792;28;96485;-68
2023/02/02 00:29:04;;;;;;;;;8.00;8.00;;;;;7.41;62.66;97850.81;6149934;28;96283;-69
2023/02/02 00:32:07;;;;;;;;;6.50;6.50;;;;;7.47;62.45;97849.91;6150968;28;96207;-68
2023/02/02 00:35:11;;;;;;;;;9.00;8.00;;;;;7.30;62.99;97844.34;6148773;28;97522;-68
2023/02/02 00:38:14;;;;;;;;;6.00;5.40;;;;;7.11;63.55;97837.38;6148377;28;96286;-68
2023/02/02 00:41:17;;;;;;;;;4.25;4.25;;;;;7.11;63.76;97845.41;6148607;28;96306;-68
2023/02/02 00:47:58;;;;;;;;;7.60;6.60;;;;;6.72;63.69;97813.72;6071699;28;96182;-67
2023/02/02 00:51:01;;;;;;;;;4.00;4.00;;;;;6.86;64.32;97853.53;6073203;28;96409;-67
2023/02/02 00:54:05;;;;;;;;;5.80;5.60;;;;;6.90;64.10;97845.84;6143347;28;96338;-68
2023/02/02 00:57:12;;;;;;;;;3.40;3.40;;;;;6.94;63.89;97858.59;6143873;28;97508;-67
2023/02/02 01:00:19;;;;;;;;;12.80;11.00;;;;;6.95;63.56;97865.59;6145545;28;96343;-68
2023/02/02 01:03:22;;;;;;;;;4.00;4.00;;;;;6.88;63.43;97864.84;6147940;28;96831;-67
2023/02/02 01:06:26;;;;;;;;;6.00;6.00;;;;;6.91;63.23;97867.06;6148496;28;96227;-67
2023/02/02 01:09:29;;;;;;;;;3.00;3.00;;;;;6.66;64.01;97860.13;6148588;28;96748;-66
2023/02/02 01:12:33;;;;;;;;;5.00;4.80;;;;;6.42;64.26;97837.72;6146571;28;96473;-68
2023/02/02 01:15:38;;;;;;;;;5.00;5.00;;;;;6.71;63.73;97858.44;6147457;28;96217;-68
2023/02/02 01:18:42;;;;;;;;;7.33;7.33;;;;;6.57;64.19;97864.13;6146781;28;96875;-68
2023/02/02 01:21:45;;;;;;;;;5.60;4.60;;;;;6.43;64.54;97871.50;6145754;28;96323;-68
2023/02/02 01:24:49;;;;;;;;;4.25;4.00;;;;;6.39;64.85;97873.78;6127628;28;96855;-67
2023/02/02 01:27:52;;;;;;;;;5.20;5.00;;;;;6.34;65.11;97876.31;6128216;28;96586;-67
2023/02/02 01:30:58;;;;;;;;;7.00;6.00;;;;;6.40;64.76;97875.41;6139880;28;96356;-67
2023/02/02 01:34:01;;;;;;;;;7.40;7.00;;;;;6.33;65.31;97874.66;6127676;28;96810;-66
2023/02/02 01:37:05;;;;;;;;;6.60;6.60;;;;;6.32;65.72;97878.38;6127499;28;96276;-67
2023/02/02 01:40:10;;;;;;;;;5.40;5.40;;;;;6.33;65.41;97885.38;6145001;28;96397;-67
2023/02/02 01:43:22;;;;;;;;;6.00;6.00;;;;;6.34;65.50;97878.16;6145744;28;96228;-68
2023/02/02 01:46:29;;;;;;;;;8.25;7.50;;;;;6.24;65.64;97885.88;6131758;28;96264;-68
2023/02/02 01:49:33;;;;;;;;;9.00;7.60;;;;;6.31;65.73;97873.22;6128448;28;96389;-67
2023/02/02 01:52:38;;;;;;;;;8.00;7.00;;;;;6.26;66.00;97895.28;6146769;28;96211;-68
2023/02/02 01:55:43;;;;;;;;;8.50;8.50;;;;;6.38;65.64;97903.44;6140867;28;96229;-67
2023/02/02 01:58:46;;;;;;;;;7.00;6.60;;;;;6.37;65.82;97891.09;6126002;28;96236;-68
2023/02/02 02:01:53;;;;;;;;;6.80;6.80;;;;;6.43;65.68;97896.41;6142736;28;96373;-67
2023/02/02 02:05:01;;;;;;;;;9.00;8.75;;;;;6.43;65.70;97899.09;6126987;28;97376;-67
2023/02/02 02:08:12;;;;;;;;;7.60;7.60;;;;;6.59;65.30;97903.06;6143853;28;96314;-68
2023/02/02 02:11:15;;;;;;;;;7.40;7.40;;;;;6.65;64.94;97901.34;6125869;28;96828;-68
2023/02/02 02:18:00;;;;;;;;;5.40;5.00;;;;;6.74;64.69;97919.59;6138745;28;96350;-68
2023/02/02 02:29:13;;;;;;;;;6.75;6.25;;;;;6.70;64.54;97920.25;6114829;28;96070;-67
2023/02/02 02:32:29;;;;;;;;;8.00;7.00;;;;;6.71;64.63;97940.63;6094576;28;96778;-67
2023/02/02 02:35:37;;;;;;;;;5.60;5.00;;;;;6.72;64.53;97935.06;6124742;28;96635;-68
2023/02/02 02:38:48;;;;;;;;;5.40;5.00;;;;;6.75;64.44;97947.19;6143650;28;96338;-68
2023/02/02 02:41:57;;;;;;;;;7.00;7.00;;;;;6.77;64.54;97939.75;6108385;28;96671;-67
2023/02/02 02:45:04;;;;;;;;;5.80;5.00;;;;;6.71;64.73;97948.69;6132160;28;96273;-68
2023/02/02 02:48:10;;;;;;;;;5.40;5.00;;;;;6.81;64.52;97949.81;6110281;28;97188;-68
2023/02/02 02:51:40;;;;;;;;;5.25;5.25;;;;;6.81;64.62;97949.81;6126016;28;96814;-68
2023/02/02 02:54:49;;;;;;;;;5.00;5.00;;;;;6.77;64.79;97950.47;6143508;28;96251;-67
2023/02/02 02:58:07;;;;;;;;;5.00;4.60;;;;;6.80;64.52;97961.56;6141616;28;96542;-67
2023/02/02 03:01:18;;;;;;;;;6.00;5.50;;;;;6.74;64.52;97962.47;6142072;28;96496;-68
2023/02/02 03:04:34;;;;;;;;;6.40;6.40;;;;;6.76;64.64;97962.22;6129639;28;97049;-68
2023/02/02 03:07:43;;;;;;;;;8.00;8.00;;;;;6.78;64.52;97952.94;6139554;28;96259;-67
2023/02/02 03:10:47;;;;;;;;;7.00;7.00;;;;;6.68;64.98;97960.66;6125840;28;96483;-67
2023/02/02 03:13:51;;;;;;;;;7.00;6.60;;;;;6.78;64.91;97960.97;6143461;28;96519;-68
2023/02/02 03:16:54;;;;;;;;;8.00;8.00;;;;;6.85;64.77;97967.09;6142197;28;96318;-67
2023/02/02 03:19:59;;;;;;;;;9.60;9.00;;;;;6.83;64.79;97963.81;6137715;28;97659;-68
2023/02/02 03:23:02;;;;;;;;;7.00;6.00;;;;;6.92;64.75;97956.31;6141903;28;96370;-68
2023/02/02 03:26:06;;;;;;;;;9.00;8.00;;;;;6.94;64.45;97972.97;6142415;28;96694;-68
2023/02/02 03:29:10;;;;;;;;;9.80;9.00;;;;;6.84;64.89;97978.03;6142840;28;96335;-68
2023/02/02 03:32:13;;;;;;;;;10.60;10.60;;;;;7.01;64.63;97976.41;6138796;28;96846;-67
2023/02/02 03:35:19;;;;;;;;;8.00;8.00;;;;;6.93;64.19;97963.31;6142315;28;96776;-67
2023/02/02 03:38:22;;;;;;;;;7.60;7.60;;;;;6.95;64.62;97969.25;6120874;28;96323;-68
2023/02/02 03:41:26;;;;;;;;;8.60;8.40;;;;;7.00;64.59;97988.19;6121220;28;96465;-68
2023/02/02 03:44:29;;;;;;;;;8.00;7.00;;;;;6.99;64.60;97975.03;6142648;28;96149;-68
2023/02/02 03:47:32;;;;;;;;;6.60;6.60;;;;;7.03;64.47;97984.25;6142817;28;97226;-67
2023/02/02 03:50:38;;;;;;;;;8.00;7.60;;;;;6.78;64.96;97978.91;6142945;28;96283;-68
2023/02/02 03:53:46;;;;;;;;;6.00;6.00;;;;;6.88;64.76;97974.69;6142820;28;96509;-68
2023/02/02 03:56:49;;;;;;;;;8.00;8.00;;;;;6.96;64.36;97997.69;6142236;28;96432;-68
2023/02/02 03:59:53;;;;;;;;;5.50;5.50;;;;;6.90;64.51;97979.81;6142978;28;96297;-68
2023/02/02 04:02:57;;;;;;;;;7.80;7.00;;;;;6.86;64.55;97984.81;6124609;28;97283;-68
2023/02/02 04:06:01;;;;;;;;;10.00;10.00;;;;;6.90;64.32;97985.19;6125858;28;96565;-68
2023/02/02 04:09:05;;;;;;;;;9.20;8.20;;;;;7.03;64.35;97979.72;6143516;28;96219;-68
2023/02/02 04:12:08;;;;;;;;;9.00;9.00;;;;;7.03;64.08;97992.28;6142258;28;96299;-68
2023/02/02 04:15:11;;;;;;;;;10.60;10.00;;;;;6.98;64.30;97987.59;6122117;28;97160;-68
2023/02/02 04:18:15;;;;;;;;;9.00;9.00;;;;;6.96;64.37;97990.47;6140900;28;96432;-68
2023/02/02 04:21:19;;;;;;;;;7.40;7.40;;;;;6.89;64.46;97967.47;6124033;28;96539;-68
2023/02/02 04:24:23;;;;;;;;;8.40;8.00;;;;;7.00;64.29;97987.34;6141309;28;96514;-68
2023/02/02 04:27:30;;;;;;;;;6.00;5.00;;;;;7.07;64.32;97980.09;6141239;28;96270;-68
2023/02/02 04:30:33;;;;;;;;;8.60;8.00;;;;;7.12;63.95;97989.09;6138267;28;96853;-68
2023/02/02 04:33:36;;;;;;;;;7.00;7.00;;;;;6.93;64.22;97957.97;6140353;28;96788;-67
2023/02/02 04:36:41;;;;;;;;;9.00;9.00;;;;;7.06;64.46;97992.66;6142392;28;96360;-69
2023/02/02 04:39:44;;;;;;;;;7.60;7.00;;;;;7.08;64.20;97989.78;6145484;28;96243;-68
2023/02/02 04:42:48;;;;;;;;;6.00;6.00;;;;;7.11;64.17;97981.28;6125339;28;97024;-68
2023/02/02 04:45:55;;;;;;;;;7.00;6.60;;;;;7.12;64.11;97982.91;6141620;28;97054;-68
2023/02/02 04:48:58;;;;;;;;;7.00;7.00;;;;;7.11;64.21;97979.41;6143478;28;96807;-68
2023/02/02 04:52:03;;;;;;;;;9.00;8.00;;;;;7.10;64.04;97979.63;6142699;28;96473;-71
2023/02/02 04:55:08;;;;;;;;;6.75;6.00;;;;;7.15;63.87;97979.78;6128280;28;96626;-68
2023/02/02 04:58:11;;;;;;;;;9.00;8.40;;;;;7.15;63.49;97977.09;6147641;28;96585;-67
2023/02/02 05:01:17;;;;;;;;;9.00;9.00;;;;;7.20;63.39;97980.75;6150874;28;96796;-67
2023/02/02 05:04:21;;;;;;;;;7.00;7.00;;;;;7.26;63.16;97984.41;6150429;28;96379;-67
2023/02/02 05:07:25;;;;;;;;;9.80;8.80;;;;;7.21;63.17;97990.44;6153782;28;96230;-68
2023/02/02 05:10:29;;;;;;;;;4.80;4.80;;;;;7.17;63.15;97983.91;6150978;28;96357;-67
2023/02/02 05:13:32;;;;;;;;;8.00;8.00;;;;;7.16;62.87;97986.78;6153574;28;96545;-68
2023/02/02 05:16:35;;;;;;;;;10.40;9.40;;;;;7.27;62.87;97996.78;6149703;28;96361;-67
2023/02/02 05:19:39;;;;;;;;;7.00;7.00;;;;;7.23;62.65;97987.56;6136369;28;96954;-67
2023/02/02 05:22:43;;;;;;;;;6.60;6.40;;;;;7.34;62.13;97986.78;6155071;28;96636;-67
2023/02/02 05:25:51;;;;;;;;;6.00;6.00;;;;;7.35;61.88;97988.44;6151283;28;96325;-67
2023/02/02 05:28:56;;;;;;;;;7.00;7.00;;;;;7.41;61.75;97992.91;6151317;28;96342;-68
2023/02/02 05:32:00;;;;;;;;;11.00;10.00;;;;;7.52;61.58;97988.69;6134451;28;96319;-68
2023/02/02 05:35:03;;;;;;;;;6.00;6.00;;;;;7.52;61.43;97991.34;6134858;28;96629;-68
2023/02/02 05:38:08;;;;;;;;;6.00;5.60;;;;;7.40;61.22;97983.22;6153787;28;97275;-68
2023/02/02 05:41:11;;;;;;;;;5.75;5.75;;;;;7.36;61.38;97980.19;6124595;28;96321;-68
2023/02/02 05:44:15;;;;;;;;;4.00;4.00;;;;;7.43;61.24;97988.13;6145763;28;96829;-68
2023/02/02 05:47:19;;;;;;;;;5.00;5.00;;;;;7.43;60.74;97985.44;6152558;28;96279;-67
2023/02/02 05:50:22;;;;;;;;;4.40;4.40;;;;;7.60;60.12;97989.19;6162999;28;96406;-68
2023/02/02 05:53:38;;;;;;;;;7.60;7.60;;;;;7.69;60.01;97989.69;6144151;28;97165;-67
2023/02/02 05:56:41;;;;;;;;;6.00;5.00;;;;;7.62;59.43;97989.81;6157394;28;96282;-67
2023/02/02 05:59:46;;;;;;;;;7.00;7.00;;;;;7.72;58.97;97990.06;6125972;28;96783;-68
2023/02/02 06:02:49;;;;;;;;;5.20;5.00;;;;;7.81;58.59;97990.59;6139881;28;98368;-67
2023/02/02 06:05:52;;;;;;;;;6.80;6.00;;;;;7.73;57.94;97986.34;6155440;28;96877;-68
2023/02/02 06:08:57;;;;;;;;;7.00;7.00;;;;;7.77;57.85;97984.84;6157404;28;96939;-68
2023/02/02 06:12:00;;;;;;;;;6.00;6.00;;;;;7.78;57.37;97975.75;6149593;28;96444;-68
2023/02/02 06:15:04;;;;;;;;;8.00;7.00;;;;;7.72;57.07;97979.31;6139895;28;96215;-67
2023/02/02 06:18:07;;;;;;;;;4.00;4.00;;;;;7.73;56.10;97974.78;6152243;28;96751;-68
2023/02/02 06:21:11;;;;;;;;;4.40;4.00;;;;;7.80;56.13;97968.31;6155373;28;96695;-68
2023/02/02 06:24:16;;;;;;;;;7.00;6.00;;;;;7.77;55.68;97968.75;6158191;28;97196;-67
2023/02/02 06:27:19;;;;;;;;;4.40;4.40;;;;;7.80;55.38;97956.75;6153821;28;96957;-68
2023/02/02 06:30:23;;;;;;;;;5.00;5.00;;;;;7.84;54.85;97960.63;6133481;28;98418;-68
2023/02/02 06:33:26;;;;;;;;;6.50;6.00;;;;;7.93;54.20;97961.94;6154370;28;96298;-68
2023/02/02 06:36:29;;;;;;;;;6.00;6.00;;;;;7.73;53.79;97938.03;6152530;28;96855;-67
2023/02/02 06:39:34;;;;;;;;;8.25;7.25;;;;;8.01;53.68;97971.56;6152615;28;96409;-68
2023/02/02 06:42:37;;;;;;;;;8.00;8.00;;;;;8.04;53.35;97976.44;6148481;28;96297;-68
2023/02/02 06:45:41;;;;;;;;;6.00;4.80;;;;;7.97;53.22;97967.66;6148209;28;96462;-68
2023/02/02 06:48:44;;;;;;;;;8.00;6.00;;;;;8.00;53.22;97959.16;6134790;28;96581;-68
2023/02/02 06:51:48;;;;;;;;;5.50;5.50;;;;;8.05;53.63;97962.81;6151504;28;96335;-68
2023/02/02 06:54:52;;;;;;;;;6.00;5.00;;;;;8.11;53.14;97958.41;6153732;28;96433;-67
2023/02/02 06:57:57;;;;;;;;;5.50;5.00;;;;;8.19;53.17;97955.38;6153671;28;96279;-67
2023/02/02 07:01:05;;;;;;;;;5.00;4.40;;;;;8.04;52.30;97954.97;6157246;28;96046;-67
2023/02/02 07:04:08;;;;;;;;;5.00;5.00;;;;;8.16;52.58;97959.31;6138656;28;97198;-68
2023/02/02 07:07:12;;;;;;;;;3.00;3.00;;;;;8.15;52.24;97971.13;6158805;28;96195;-68
2023/02/02 07:10:17;;;;;;;;;3.00;3.00;;;;;8.13;52.36;97970.53;6158173;28;96368;-68
2023/02/02 07:13:41;;;;;;;;;4.00;3.33;;;;;8.12;52.01;97958.16;6161794;28;96390;-68
2023/02/02 07:16:44;;;;;;;;;6.00;5.40;;;;;8.02;52.12;97951.69;6157562;28;96147;-67
2023/02/02 07:19:48;;;;;;;;;6.00;5.00;;;;;7.98;52.26;97951.34;6157916;28;96248;-67
2023/02/02 07:22:51;;;;;;;;;4.60;4.00;;;;;8.02;52.82;97960.56;6157309;28;96958;-67
2023/02/02 07:26:04;;;;;;;;;5.80;5.00;;;;;7.86;52.70;97973.81;6135198;28;98468;-67
2023/02/02 07:29:11;;;;;;;;;4.00;3.00;;;;;7.94;53.36;97992.28;6154770;28;96651;-67
2023/02/02 07:32:15;;;;;;;;;6.00;5.00;;;;;8.02;52.91;97973.97;6154606;28;96278;-66
2023/02/02 07:35:18;;;;;;;;;4.50;3.00;;;;;7.95;53.76;97969.75;6156407;28;96786;-68
2023/02/02 07:38:21;;;;;;;;;6.00;5.60;;;;;7.81;54.10;97971.81;6157303;28;96310;-67
2023/02/02 07:41:26;;;;;;;;;5.00;4.00;;;;;7.84;54.12;97979.41;6155598;28;96113;-67
2023/02/02 07:44:30;;;;;;;;;5.00;4.25;;;;;7.84;54.02;97990.94;6138920;28;97213;-67
2023/02/02 07:47:33;;;;;;;;;5.25;5.00;;;;;7.89;54.72;97984.09;6154129;28;96335;-67
2023/02/02 07:50:36;;;;;;;;;3.00;3.00;;;;;7.72;54.72;97984.69;6157159;28;96251;-67
2023/02/02 07:53:43;;;;;;;;;3.20;3.00;;;;;7.59;55.38;97976.81;6156429;28;96213;-68
2023/02/02 07:56:50;;;;;;;;;6.60;6.00;;;;;7.54;56.57;97981.22;6153584;28;97030;-67
2023/02/02 07:59:54;;;;;;;;;7.00;5.00;;;;;7.38;57.61;97977.25;6156374;28;96258;-68
2023/02/02 08:02:57;;;;;;;;;7.00;7.00;;;;;7.25;59.15;97969.38;6122988;28;98296;-68
2023/02/02 08:06:01;;;;;;;;;5.40;5.00;;;;;7.25;59.76;97974.72;6142183;28;96321;-68
2023/02/02 08:09:07;;;;;;;;;5.00;5.00;;;;;7.37;60.17;97967.59;6161428;28;96270;-68
2023/02/02 08:12:12;;;;;;;;;5.00;4.75;;;;;7.22;60.31;97956.41;6162351;28;96272;-68
2023/02/02 08:15:15;;;;;;;;;4.00;4.00;;;;;7.26;60.71;97957.63;6161389;28;96246;-68
2023/02/02 08:18:19;;;;;;;;;5.00;5.00;;;;;7.07;61.55;97962.16;6151459;28;96250;-68
2023/02/02 08:21:23;;;;;;;;;5.50;5.00;;;;;7.05;62.10;97969.56;6160275;28;96241;-68
2023/02/02 08:24:26;;;;;;;;;5.00;5.00;;;;;7.02;62.59;97958.50;6159682;28;96201;-68
2023/02/02 08:27:31;;;;;;;;;5.00;4.00;;;;;7.02;62.56;97956.63;6160443;28;96415;-67
2023/02/02 08:30:35;;;;;;;;;5.60;5.00;;;;;6.95;63.32;97961.22;6161690;28;96068;-67
2023/02/02 08:33:39;;;;;;;;;4.80;4.40;;;;;6.96;63.49;97942.25;6162360;28;96244;-68
2023/02/02 08:36:42;;;;;;;;;7.00;6.00;;;;;6.79;64.16;97943.84;6158885;28;97627;-68
2023/02/02 08:39:45;;;;;;;;;4.60;4.60;;;;;6.81;64.25;97944.47;6158310;28;96403;-68
2023/02/02 08:42:54;;;;;;;;;8.00;5.75;;;;;6.82;64.30;97948.78;6151179;28;96304;-67
2023/02/02 08:45:58;;;;;;;;;6.60;6.00;;;;;6.75;64.68;97942.66;6145158;28;96453;-68
2023/02/02 08:49:15;;;;;;;;;7.40;7.00;;;;;6.86;64.54;97938.44;6146461;28;96720;-67
2023/02/02 08:52:18;;;;;;;;;5.60;5.00;;;;;6.93;64.49;97937.34;6143979;28;96696;-67
2023/02/02 08:55:22;;;;;;;;;5.80;5.20;;;;;6.87;64.93;97948.94;6143682;28;96351;-68
2023/02/02 08:58:28;;;;;;;;;8.00;8.00;;;;;6.94;65.03;97938.13;6145092;28;96417;-67
2023/02/02 09:01:33;;;;;;;;;6.00;6.00;;;;;6.92;64.85;97941.06;6145044;28;96291;-68
2023/02/02 09:04:37;;;;;;;;;6.00;5.00;;;;;6.92;64.91;97943.75;6144554;28;96206;-68
2023/02/02 09:07:40;;;;;;;;;5.80;5.80;;;;;6.93;64.85;97942.72;6144333;28;96208;-68
2023/02/02 09:10:44;;;;;;;;;6.00;6.00;;;;;6.90;65.06;97942.31;6127788;28;96398;-68
2023/02/02 09:13:55;;;;;;;;;7.00;6.00;;;;;6.71;65.79;97925.38;6147060;28;96293;-67
2023/02/02 09:16:58;;;;;;;;;4.00;3.60;;;;;6.87;65.97;97935.53;6132524;28;96304;-67
2023/02/02 09:20:03;;;;;;;;;4.40;4.40;;;;;6.73;66.40;97936.72;6131378;28;98534;-68
2023/02/02 09:23:06;;;;;;;;;3.00;3.00;;;;;6.94;65.98;97941.66;6153402;28;96372;-68
2023/02/02 09:26:12;;;;;;;;;4.00;4.00;;;;;7.17;65.38;97946.38;6151454;28;96578;-68
2023/02/02 09:29:17;;;;;;;;;5.60;5.00;;;;;6.96;65.95;97936.06;6150035;28;96277;-68
2023/02/02 09:32:23;;;;;;;;;7.50;6.00;;;;;6.91;65.94;97947.47;6150659;28;96270;-67
2023/02/02 09:35:27;;;;;;;;;3.00;3.00;;;;;7.01;65.73;97938.09;6150762;28;96992;-68
2023/02/02 09:38:36;;;;;;;;;6.75;6.50;;;;;7.20;65.66;97939.72;6153903;28;96359;-67
2023/02/02 09:42:13;;;;;;;;;4.00;4.00;;;;;7.18;65.27;97942.66;6154167;28;96228;-68
2023/02/02 09:45:25;;;;;;;;;5.50;5.50;;;;;7.37;65.21;97954.19;6152588;28;96363;-68
2023/02/02 09:48:39;;;;;;;;;4.60;4.60;;;;;7.19;65.13;97980.97;6135219;28;96381;-68
2023/02/02 09:51:49;;;;;;;;;7.40;7.40;;;;;7.02;65.39;97956.63;6137738;28;96258;-68
2023/02/02 09:54:58;;;;;;;;;7.00;7.00;;;;;6.99;66.13;97967.78;6148874;28;96422;-68
2023/02/02 09:58:08;;;;;;;;;6.00;6.00;;;;;7.22;65.93;97967.16;6150447;28;96398;-67
2023/02/02 10:01:17;;;;;;;;;8.00;7.00;;;;;7.15;65.72;97966.38;6131532;28;96367;-68
2023/02/02 10:04:26;;;;;;;;;6.00;5.60;;;;;7.08;65.85;97987.91;6149807;28;96066;-68
2023/02/02 10:07:37;;;;;;;;;6.00;5.80;;;;;6.99;65.81;97981.16;6148323;28;96277;-68
2023/02/02 10:10:43;;;;;;;;;5.00;5.00;;;;;7.00;66.36;97980.13;6133732;28;96275;-68
2023/02/02 10:13:48;;;;;;;;;5.00;4.60;;;;;7.05;66.13;97987.50;6151031;28;96487;-67
2023/02/02 10:16:55;;;;;;;;;7.00;6.00;;;;;7.05;66.19;98000.91;6151060;28;96060;-68
2023/02/02 10:20:06;;;;;;;;;7.00;6.00;;;;;6.79;66.73;98000.09;6148989;28;96491;-68
2023/02/02 10:23:25;;;;;;;;;5.00;5.00;;;;;6.84;66.61;98000.25;6151819;28;96364;-69
2023/02/02 10:26:37;;;;;;;;;6.80;5.60;;;;;6.73;66.58;98005.53;6144484;28;96215;-67
2023/02/02 10:29:51;;;;;;;;;7.00;7.00;;;;;6.71;66.38;98003.06;6152375;28;96246;-68
2023/02/02 10:33:04;;;;;;;;;6.60;6.00;;;;;6.53;67.17;98001.16;6150919;28;96308;-68
2023/02/02 10:36:19;;;;;;;;;5.40;4.40;;;;;6.65;66.91;98009.28;6148689;28;96376;-68
2023/02/02 10:39:36;;;;;;;;;8.60;7.00;;;;;6.73;66.53;98011.72;6149564;28;96205;-68
2023/02/02 10:46:17;;;;;;;;;8.40;7.40;;;;;6.92;66.50;98021.44;6148200;28;96396;-67
2023/02/02 10:49:29;;;;;;;;;6.00;4.60;;;;;6.93;66.08;98012.38;6148684;28;96304;-68
2023/02/02 10:52:35;;;;;;;;;5.00;4.00;;;;;6.90;66.39;98025.38;6133087;28;96937;-68
2023/02/02 10:55:43;;;;;;;;;7.00;5.60;;;;;6.93;66.52;98027.63;6148620;28;97214;-68
2023/02/02 10:58:55;;;;;;;;;5.00;5.00;;;;;6.76;67.63;98021.16;6131206;28;96706;-68
2023/02/02 11:01:59;;;;;;;;;7.25;6.25;;;;;6.84;67.37;98028.94;6148706;28;96513;-68
2023/02/02 11:08:48;;;;;;;;;6.00;5.50;;;;;7.03;66.63;98038.66;6117670;28;96322;-68
2023/02/02 11:11:57;;;;;;;;;5.60;5.60;;;;;7.01;66.57;98034.56;6150226;28;96327;-68
2023/02/02 11:15:05;;;;;;;;;10.00;9.00;;;;;7.01;66.58;98043.41;6148105;28;96235;-68
2023/02/02 11:18:27;;;;;;;;;8.00;7.00;;;;;7.18;66.22;98041.84;6151047;28;96170;-68
2023/02/02 11:21:33;;;;;;;;;11.00;9.00;;;;;7.15;65.88;98052.97;6148986;28;96506;-67
2023/02/02 11:24:45;;;;;;;;;9.60;8.60;;;;;7.20;66.51;98044.28;6149091;28;96351;-68
2023/02/02 11:27:49;;;;;;;;;9.60;9.00;;;;;7.19;66.23;98050.66;6146689;28;96219;-67
2023/02/02 11:30:53;;;;;;;;;10.00;9.50;;;;;7.38;65.80;98066.56;6148319;28;96784;-68
2023/02/02 11:34:09;;;;;;;;;9.40;9.00;;;;;7.37;65.55;98062.28;6147192;28;96309;-68
2023/02/02 11:37:20;;;;;;;;;8.60;7.60;;;;;7.28;65.33;98066.25;6148308;28;96387;-69
2023/02/02 11:40:30;;;;;;;;;9.00;8.00;;;;;7.56;64.84;98057.75;6147938;28;96889;-69
2023/02/02 11:43:40;;;;;;;;;9.50;9.00;;;;;7.59;64.66;98070.69;6148672;28;96312;-69
2023/02/02 11:46:47;;;;;;;;;9.67;8.67;;;;;7.62;64.64;98069.44;6146537;28;97040;-68
2023/02/02 11:49:53;;;;;;;;;13.00;11.00;;;;;7.63;64.84;98079.94;6131973;28;96261;-68
2023/02/02 11:53:01;;;;;;;;;10.25;10.25;;;;;7.69;64.43;98080.91;6151406;28;96867;-67
2023/02/02 11:56:10;;;;;;;;;11.00;10.00;;;;;7.71;64.53;98076.97;6149013;28;97166;-68
2023/02/02 11:59:29;;;;;;;;;10.60;10.00;;;;;7.81;64.38;98068.41;6151760;28;96320;-69
2023/02/02 12:02:33;;;;;;;;;10.40;9.00;;;;;7.80;63.84;98061.41;6131897;28;96987;-68
2023/02/02 12:05:38;;;;;;;;;10.00;9.00;;;;;8.09;63.55;98084.78;6153255;28;96306;-68
2023/02/02 12:08:42;;;;;;;;;11.00;10.60;;;;;8.00;63.14;98086.13;6135520;28;96678;-68
2023/02/02 12:11:58;;;;;;;;;10.00;9.00;;;;;8.12;62.94;98081.63;6153708;28;96518;-68
2023/02/02 12:15:13;;;;;;;;;11.00;10.00;;;;;8.14;62.79;98082.25;6153489;28;96787;-68
2023/02/02 12:18:36;;;;;;;;;6.60;6.60;;;;;8.23;62.44;98096.19;6155526;28;96224;-68
2023/02/02 12:21:45;;;;;;;;;7.80;5.80;;;;;8.37;62.08;98096.84;6155970;28;96182;-69
2023/02/02 12:24:57;;;;;;;;;9.50;9.00;;;;;8.40;61.91;98104.47;6135559;28;99224;-68
2023/02/02 12:28:10;;;;;;;;;6.80;6.80;;;;;8.44;61.36;98106.47;6154741;28;96324;-68
2023/02/02 12:31:26;;;;;;;;;9.00;8.00;;;;;8.49;61.03;98117.38;6156602;28;96222;-68
2023/02/02 12:34:36;;;;;;;;;8.00;8.00;;;;;8.32;60.75;98113.66;6156130;28;96437;-67
2023/02/02 12:37:52;;;;;;;;;7.00;6.00;;;;;8.31;60.62;98108.53;6153502;28;96792;-67
2023/02/02 12:41:20;;;;;;;;;9.00;8.00;;;;;8.50;60.41;98126.25;6157721;28;97054;-68
2023/02/02 12:44:35;;;;;;;;;7.80;6.80;;;;;8.45;59.71;98134.16;6142894;28;96359;-68
2023/02/02 12:47:47;;;;;;;;;9.40;8.00;;;;;8.53;59.23;98141.91;6157235;28;96293;-68
2023/02/02 12:51:03;;;;;;;;;10.40;9.00;;;;;8.62;58.93;98146.72;6155911;28;96207;-68
2023/02/02 12:54:24;;;;;;;;;8.00;8.00;;;;;8.50;58.15;98137.00;6156205;28;96223;-68
2023/02/02 12:58:00;;;;;;;;;8.20;8.00;;;;;8.40;58.39;98131.34;6159309;28;96218;-69
2023/02/02 13:01:17;;;;;;;;;9.00;8.40;;;;;8.53;57.91;98174.97;6143408;28;96639;-68
2023/02/02 13:04:35;;;;;;;;;7.60;6.80;;;;;8.37;57.76;98172.06;6143566;28;96941;-69
2023/02/02 13:08:00;;;;;;;;;7.75;6.00;;;;;8.49;57.96;98181.00;6158897;28;96759;-69
2023/02/02 13:11:28;;;;;;;;;9.60;9.00;;;;;8.41;56.94;98192.84;6158591;28;96763;-69
2023/02/02 13:14:38;;;;;;;;;8.00;8.00;;;;;8.23;57.65;98156.06;6143692;28;96443;-68
2023/02/02 13:17:43;;;;;;;;;6.20;6.20;;;;;8.56;56.87;98184.41;6159684;28;96512;-68
2023/02/02 13:20:52;;;;;;;;;6.00;6.00;;;;;8.67;56.08;98187.16;6156360;28;96274;-68
2023/02/02 13:23:59;;;;;;;;;6.33;6.33;;;;;8.64;56.16;98206.44;6154656;28;97243;-68
2023/02/02 13:27:06;;;;;;;;;5.20;5.00;;;;;8.64;56.51;98209.13;6156252;28;96785;-67
2023/02/02 13:30:22;;;;;;;;;9.00;8.00;;;;;8.63;56.67;98218.22;6125521;28;96697;-67
2023/02/02 13:33:31;;;;;;;;;10.00;9.00;;;;;8.60;56.45;98218.66;6149439;28;96577;-68
2023/02/02 13:36:37;;;;;;;;;9.00;8.60;;;;;8.68;57.10;98226.44;6121339;28;96317;-68
2023/02/02 13:39:45;;;;;;;;;7.20;7.00;;;;;8.74;56.65;98234.66;6136987;28;97559;-68
2023/02/02 13:42:55;;;;;;;;;11.00;10.00;;;;;8.84;56.48;98233.06;6151394;28;96771;-68
2023/02/02 13:46:12;;;;;;;;;8.75;8.25;;;;;8.91;56.10;98246.41;6149418;28;96264;-68
2023/02/02 13:49:21;;;;;;;;;8.25;8.25;;;;;8.88;56.20;98255.75;6151657;28;96754;-67
2023/02/02 13:52:40;;;;;;;;;11.00;10.60;;;;;8.83;56.56;98249.41;6150228;28;96432;-68
2023/02/02 13:56:01;;;;;;;;;8.60;8.60;;;;;8.90;56.51;98258.19;6144428;28;96547;-68
2023/02/02 13:59:17;;;;;;;;;11.80;9.00;;;;;9.00;56.62;98266.53;6141821;28;96288;-68
2023/02/02 14:02:32;;;;;;;;;9.60;8.00;;;;;9.01;56.49;98277.09;6140426;28;96367;-68
2023/02/02 14:05:38;;;;;;;;;8.00;8.00;;;;;8.98;56.16;98280.25;6138152;28;97960;-67
2023/02/02 14:08:48;;;;;;;;;10.60;10.60;;;;;8.98;55.85;98285.63;6141512;28;96424;-68
2023/02/02 14:11:57;;;;;;;;;11.00;10.00;;;;;9.07;56.03;98286.13;6120181;28;96682;-67
2023/02/02 14:15:02;;;;;;;;;10.75;9.00;;;;;9.05;56.17;98291.72;6140533;28;96314;-68
2023/02/02 14:18:07;;;;;;;;;9.00;8.75;;;;;9.01;56.41;98290.53;6132196;28;96227;-68
2023/02/02 14:21:10;;;;;;;;;9.00;9.00;;;;;9.09;56.43;98306.34;6148007;28;96517;-68
2023/02/02 14:24:39;;;;;;;;;9.75;9.00;;;;;9.17;56.36;98307.09;6159816;28;96193;-68
2023/02/02 14:28:01;;;;;;;;;9.60;7.60;;;;;9.10;56.00;98318.75;6158238;28;96266;-68
2023/02/02 14:31:52;;;;;;;;;10.20;9.00;;;;;9.16;56.14;98321.56;6157998;28;96288;-68
2023/02/02 14:34:58;;;;;;;;;9.00;8.00;;;;;9.08;55.89;98328.91;6154984;28;96739;-68
2023/02/02 14:38:08;;;;;;;;;11.00;10.00;;;;;9.04;56.32;98327.72;6139907;28;96921;-68
2023/02/02 14:43:43;;;;;;;;;9.00;8.00;;;;;9.08;56.37;98333.47;6139336;28;96277;-68
2023/02/02 14:45:07;;;;;;;;;13.00;11.40;;;;;9.01;56.04;98328.16;6145353;28;96246;-68
2023/02/02 14:48:16;;;;;;;;;9.00;9.00;;;;;8.95;55.54;98337.13;6147952;28;96456;-68
2023/02/02 14:51:23;;;;;;;;;9.00;9.00;;;;;9.11;55.62;98344.59;6154704;28;96290;-69
2023/02/02 14:54:38;;;;;;;;;7.00;7.00;;;;;9.22;55.18;98358.34;6157551;28;97053;-67
2023/02/02 14:57:41;;;;;;;;;9.60;9.00;;;;;9.31;54.75;98365.03;6155168;28;96420;-68
2023/02/02 15:00:56;;;;;;;;;10.67;9.67;;;;;9.33;54.25;98366.47;6154613;28;96835;-68
2023/02/02 15:04:24;;;;;;;;;8.20;7.00;;;;;9.30;53.67;98376.84;6133819;28;96306;-69
2023/02/02 15:07:53;;;;;;;;;11.00;10.00;;;;;9.39;53.65;98372.78;6149124;28;96293;-68
2023/02/02 15:11:26;;;;;;;;;8.00;8.00;;;;;9.18;53.78;98362.53;6149564;28;97323;-68
2023/02/02 15:14:33;;;;;;;;;14.00;12.00;;;;;9.37;53.54;98391.88;6133077;28;98492;-68
2023/02/02 15:17:52;;;;;;;;;8.20;7.80;;;;;9.33;53.29;98390.69;6147998;28;96918;-68